Time;durP1;ratioP1;P1;durP2;ratioP2;P2;SDS_P1;SDS_P2;PMS_P1;PMS_P2;Temp;Humidity;BMP_temperature;BMP_pressure;BME280_temperature;BME280_humidity;BME280_pressure;Samples;Min_cycle;Max_cycle;Signal;HPM_P1;HPM_P2
2024/01/04 00:01:26;;;;;;;158.45;82.90;;;;;;;2.27;99.05;98570.19;4903739;29;20146;-86
2024/01/04 00:04:35;;;;;;;182.38;95.65;;;;;;;2.12;98.80;98562.44;4898172;29;20052;-87
2024/01/04 00:07:27;;;;;;;170.95;88.03;;;;;;;2.03;98.81;98555.72;4909730;29;20055;-89
2024/01/04 00:10:36;;;;;;;179.00;96.95;;;;;;;1.95;98.74;98548.81;4888801;29;20064;-87
2024/01/04 00:13:27;;;;;;;201.60;99.20;;;;;;;1.92;99.09;98548.38;4888208;29;20055;-88
2024/01/04 00:16:19;;;;;;;203.02;108.22;;;;;;;1.91;99.32;98552.00;4910996;29;20039;-88
2024/01/04 00:19:27;;;;;;;201.23;109.40;;;;;;;1.83;98.62;98559.00;4905307;29;20047;-84
2024/01/04 00:22:36;;;;;;;210.57;107.78;;;;;;;1.73;98.58;98560.34;4906021;29;20060;-89
2024/01/04 00:25:46;;;;;;;232.13;117.70;;;;;;;1.70;98.54;98556.28;4903606;29;20053;-83
2024/01/04 00:28:55;;;;;;;240.35;125.35;;;;;;;1.61;98.95;98554.78;4895173;29;20048;-87
2024/01/04 00:32:04;;;;;;;237.77;124.55;;;;;;;1.46;99.03;98548.81;4908942;29;20029;-83
2024/01/04 00:35:14;;;;;;;215.02;122.03;;;;;;;1.41;99.36;98562.47;4925542;29;20040;-84
2024/01/04 00:38:05;;;;;;;222.45;118.95;;;;;;;1.32;99.05;98559.16;4917499;29;20049;-87
2024/01/04 00:40:57;;;;;;;221.35;118.72;;;;;;;1.35;99.15;98561.41;4882169;29;20036;-85
2024/01/04 00:43:49;;;;;;;211.88;112.60;;;;;;;1.33;98.85;98565.19;4901218;29;20407;-84
2024/01/04 00:46:41;;;;;;;222.35;120.78;;;;;;;1.37;98.77;98567.25;4894241;29;20044;-85
2024/01/04 00:49:33;;;;;;;203.32;116.60;;;;;;;1.31;98.92;98567.97;4894072;29;20041;-88
2024/01/04 00:52:24;;;;;;;246.80;141.77;;;;;;;1.29;98.57;98558.72;4881558;29;20048;-85
2024/01/04 00:55:16;;;;;;;222.98;122.93;;;;;;;1.28;99.05;98557.88;4881822;29;20052;-84
2024/01/04 00:58:07;;;;;;;198.00;113.18;;;;;;;1.25;98.05;98560.88;4881195;29;20045;-85
2024/01/04 01:00:52;;;;;;;196.18;104.13;;;;;;;1.25;98.55;98570.53;4879871;29;20479;-84
2024/01/04 01:03:38;;;;;;;208.07;109.47;;;;;;;1.27;98.65;98571.97;4886773;29;20049;-87
2024/01/04 01:06:48;;;;;;;204.13;108.65;;;;;;;1.19;98.33;98564.22;4887277;29;20064;-84
2024/01/04 01:09:39;;;;;;;189.48;103.15;;;;;;;1.11;98.75;98556.50;4881120;29;20048;-84
2024/01/04 01:12:31;;;;;;;213.52;107.57;;;;;;;1.10;98.67;98566.19;4893256;29;20064;-88
2024/01/04 01:15:40;;;;;;;206.57;105.97;;;;;;;1.02;98.58;98566.28;4889595;29;20052;-84
2024/01/04 01:18:49;;;;;;;164.35;81.28;;;;;;;1.02;99.14;98573.31;4889263;29;20045;-84
2024/01/04 01:21:41;;;;;;;178.32;95.70;;;;;;;1.04;98.65;98571.34;4880773;29;20514;-84
2024/01/04 01:24:50;;;;;;;173.55;92.65;;;;;;;0.97;98.53;98566.00;4900114;29;20510;-83
2024/01/04 01:27:35;;;;;;;172.88;92.13;;;;;;;0.96;99.27;98572.25;4886239;29;20071;-84
2024/01/04 01:30:21;;;;;;;194.80;104.63;;;;;;;0.92;98.51;98569.19;4879554;29;20056;-88
2024/01/04 01:33:06;;;;;;;200.65;108.78;;;;;;;0.90;98.36;98578.22;4903342;29;20411;-87
2024/01/04 01:35:52;;;;;;;207.35;100.10;;;;;;;0.91;98.86;98564.16;4874281;29;20044;-87
2024/01/04 01:38:38;;;;;;;235.63;125.28;;;;;;;1.01;98.63;98569.09;4880234;29;20052;-84
2024/01/04 01:41:24;;;;;;;236.55;126.82;;;;;;;1.05;98.43;98559.88;4889383;29;20045;-89
2024/01/04 01:44:10;;;;;;;278.17;151.45;;;;;;;1.09;98.58;98553.25;4893036;29;20052;-82
2024/01/04 01:47:00;;;;;;;230.35;125.18;;;;;;;1.12;99.13;98571.22;4881855;29;20049;-88
2024/01/04 01:49:46;;;;;;;227.90;129.15;;;;;;;1.13;98.79;98552.72;4880537;29;20053;-85
2024/01/04 01:52:31;;;;;;;234.25;130.43;;;;;;;1.13;98.67;98541.44;4886668;29;20052;-88
2024/01/04 01:55:19;;;;;;;227.88;127.13;;;;;;;1.07;98.81;98536.94;4893616;29;20403;-87
2024/01/04 01:58:07;;;;;;;211.45;120.50;;;;;;;1.05;98.69;98546.78;4885775;29;20045;-84
2024/01/04 02:01:16;;;;;;;232.02;125.68;;;;;;;0.98;99.00;98531.03;4889023;29;20036;-84
2024/01/04 02:04:26;;;;;;;283.50;145.88;;;;;;;0.95;98.86;98534.00;4900062;29;20392;-85
2024/01/04 02:07:17;;;;;;;265.73;139.23;;;;;;;0.91;98.56;98528.34;4892579;29;20048;-86
2024/01/04 02:10:25;;;;;;;256.17;135.15;;;;;;;0.86;98.89;98532.50;4878726;29;20036;-88
2024/01/04 02:13:35;;;;;;;245.70;132.20;;;;;;;0.84;98.40;98530.03;4890344;29;20053;-88
2024/01/04 02:16:21;;;;;;;228.70;128.65;;;;;;;0.85;98.78;98526.44;4893246;29;20057;-89
2024/01/04 02:19:09;;;;;;;254.77;134.75;;;;;;;0.86;98.90;98519.41;4894433;29;20070;-89
2024/01/04 02:21:54;;;;;;;233.50;128.07;;;;;;;0.90;98.59;98518.84;4879804;29;20056;-86
2024/01/04 02:24:40;;;;;;;221.40;122.07;;;;;;;0.87;98.82;98507.94;4892620;29;20395;-86
2024/01/04 02:27:26;;;;;;;233.60;127.40;;;;;;;0.84;99.12;98501.25;4885909;29;20048;-84
2024/01/04 02:30:13;;;;;;;234.27;130.50;;;;;;;0.84;98.78;98503.88;4900433;29;20048;-89
2024/01/04 02:33:07;;;;;;;220.02;121.60;;;;;;;0.86;99.04;98496.66;4892815;29;20048;-86
2024/01/04 02:35:53;;;;;;;;;;;;;;;0.85;99.07;98489.81;4880347;29;20052;-89
2024/01/04 02:38:38;;;;;;;159.70;82.15;;;;;;;0.79;98.69;98481.91;4875289;29;19915;-88
2024/01/04 02:41:28;;;;;;;180.45;98.93;;;;;;;0.83;98.68;98483.16;4874993;29;20059;-88
2024/01/04 02:44:15;;;;;;;203.07;108.65;;;;;;;0.77;98.42;98460.34;4879726;29;20055;-88
2024/01/04 02:47:02;;;;;;;200.73;103.40;;;;;;;0.74;98.99;98466.75;4891835;29;20056;-90
2024/01/04 02:50:07;;;;;;;199.77;102.93;;;;;;;0.75;98.07;98457.91;4878119;29;20041;-88
2024/01/04 02:52:55;;;;;;;187.90;100.15;;;;;;;0.68;98.38;98459.66;4880292;29;20056;-83
2024/01/04 02:55:40;;;;;;;165.95;83.32;;;;;;;0.68;98.08;98451.81;4883303;29;20052;-84
2024/01/04 02:58:26;;;;;;;171.40;91.15;;;;;;;0.72;98.16;98450.44;4884411;29;20063;-82
2024/01/04 03:01:22;;;;;;;170.90;89.97;;;;;;;0.76;98.69;98459.53;4882502;29;20051;-88
2024/01/04 03:04:09;;;;;;;178.05;91.10;;;;;;;0.73;98.22;98446.84;4892871;29;20506;-86
2024/01/04 03:06:55;;;;;;;158.40;78.00;;;;;;;0.66;98.23;98438.94;4895479;29;20055;-84
2024/01/04 03:09:41;;;;;;;170.20;86.82;;;;;;;0.64;98.85;98445.34;4896698;29;20059;-83
2024/01/04 03:12:27;;;;;;;196.82;103.82;;;;;;;0.59;98.64;98434.59;4904819;29;20049;-86
2024/01/04 03:15:14;;;;;;;400.17;187.48;;;;;;;0.64;99.16;98434.88;4900987;29;20052;-82
2024/01/04 03:18:02;;;;;;;187.35;99.53;;;;;;;0.49;98.15;98434.09;4900163;29;20459;-82
2024/01/04 03:20:48;;;;;;;180.57;98.32;;;;;;;0.49;98.54;98436.72;4885513;29;20044;-85
2024/01/04 03:23:35;;;;;;;203.73;115.35;;;;;;;0.49;98.61;98426.25;4875580;29;20064;-82
2024/01/04 03:26:21;;;;;;;201.02;115.10;;;;;;;0.45;98.65;98416.16;4887123;29;20048;-84
2024/01/04 03:29:08;;;;;;;194.82;114.15;;;;;;;0.48;98.18;98419.41;4877470;29;20049;-84
2024/01/04 03:31:55;;;;;;;186.18;107.70;;;;;;;0.44;98.43;98411.94;4889703;29;20048;-83
2024/01/04 03:34:41;;;;;;;163.23;94.90;;;;;;;0.49;98.07;98408.75;4878991;29;20045;-82
2024/01/04 03:37:27;;;;;;;194.75;111.45;;;;;;;0.50;98.04;98412.19;4886974;29;20047;-84
2024/01/04 03:40:14;;;;;;;196.75;108.35;;;;;;;0.52;98.18;98418.84;4885556;29;20041;-81
2024/01/04 03:43:02;;;;;;;178.40;103.57;;;;;;;0.46;98.28;98427.44;4886211;29;20048;-82
2024/01/04 03:45:48;;;;;;;189.65;111.03;;;;;;;0.44;98.33;98418.97;4899877;29;20045;-82
2024/01/04 03:48:35;;;;;;;196.38;115.60;;;;;;;0.44;97.97;98409.31;4886088;29;20056;-82
2024/01/04 03:51:21;;;;;;;200.55;115.40;;;;;;;0.45;98.38;98410.13;4898594;29;20487;-84
2024/01/04 03:54:07;;;;;;;192.00;106.93;;;;;;;0.43;98.02;98412.09;4879097;29;20044;-82
2024/01/04 03:56:53;;;;;;;188.55;107.10;;;;;;;0.46;98.30;98425.63;4885635;29;20048;-82
2024/01/04 03:59:39;;;;;;;210.27;117.10;;;;;;;0.43;98.27;98433.03;4872966;29;20048;-82
2024/01/04 04:02:25;;;;;;;191.20;109.35;;;;;;;0.49;98.08;98431.47;4899047;29;20048;-85
2024/01/04 04:05:11;;;;;;;204.77;115.25;;;;;;;0.49;98.37;98427.06;4877516;29;20056;-82
2024/01/04 04:07:57;;;;;;;203.32;112.22;;;;;;;0.53;98.38;98430.09;4890986;29;20049;-84
2024/01/04 04:10:44;;;;;;;180.43;101.50;;;;;;;0.55;97.77;98428.13;4872217;29;20053;-83
2024/01/04 04:13:31;;;;;;;197.07;112.20;;;;;;;0.58;98.38;98419.91;4884114;29;20495;-85
2024/01/04 04:16:17;;;;;;;191.65;107.65;;;;;;;0.59;98.70;98413.69;4881052;29;20407;-82
2024/01/04 04:19:03;;;;;;;190.73;105.18;;;;;;;0.63;98.27;98414.97;4891996;29;20048;-82
2024/01/04 04:21:50;;;;;;;158.45;93.35;;;;;;;0.65;98.07;98426.03;4902036;29;20049;-85
2024/01/04 04:24:36;;;;;;;177.98;100.85;;;;;;;0.64;98.31;98414.75;4888820;29;20059;-82
2024/01/04 04:27:22;;;;;;;190.88;110.22;;;;;;;0.59;98.58;98409.25;4904504;29;20064;-82
2024/01/04 04:30:09;;;;;;;173.07;98.10;;;;;;;0.67;98.54;98419.63;4904352;29;20036;-82
2024/01/04 04:32:55;;;;;;;189.23;106.85;;;;;;;0.69;98.26;98415.03;4890315;29;20056;-84
2024/01/04 04:35:42;;;;;;;170.95;98.38;;;;;;;0.77;98.83;98428.97;4880734;29;20045;-83
2024/01/04 04:38:27;;;;;;;187.05;104.97;;;;;;;0.84;99.25;98411.53;4887177;29;20055;-84
2024/01/04 04:41:14;;;;;;;170.43;94.78;;;;;;;0.85;98.21;98413.97;4875666;29;20049;-81
2024/01/04 04:44:01;;;;;;;168.55;94.75;;;;;;;0.92;98.19;98421.88;4901335;29;20522;-84
2024/01/04 04:46:47;;;;;;;198.80;117.53;;;;;;;0.89;98.79;98423.06;4902977;29;20084;-82
2024/01/04 04:49:33;;;;;;;186.27;109.43;;;;;;;0.95;99.18;98416.25;4886922;29;20052;-82
2024/01/04 04:52:19;;;;;;;184.38;103.82;;;;;;;0.98;98.19;98415.88;4887210;29;20036;-82
2024/01/04 04:55:05;;;;;;;177.65;104.70;;;;;;;1.04;98.55;98424.81;4900707;29;20048;-84
2024/01/04 04:57:51;;;;;;;156.13;87.97;;;;;;;1.04;99.01;98420.38;4880002;29;20044;-82
2024/01/04 05:00:37;;;;;;;162.65;97.18;;;;;;;1.06;98.42;98423.59;4900645;29;20060;-83
2024/01/04 05:03:23;;;;;;;182.10;103.65;;;;;;;1.10;98.96;98418.81;4900861;29;20055;-81
2024/01/04 05:06:10;;;;;;;163.80;94.65;;;;;;;1.13;98.79;98407.97;4886672;29;20053;-84
2024/01/04 05:08:57;;;;;;;165.52;95.70;;;;;;;1.10;98.52;98422.25;4886780;29;20055;-83
2024/01/04 05:11:43;;;;;;;147.05;83.53;;;;;;;1.14;98.09;98415.63;4900698;29;20059;-81
2024/01/04 05:14:30;;;;;;;145.77;85.97;;;;;;;1.14;98.70;98430.53;4889782;29;20059;-81
2024/01/04 05:17:15;;;;;;;159.63;89.47;;;;;;;1.14;98.44;98422.66;4900172;29;20064;-81
2024/01/04 05:20:04;;;;;;;149.75;85.88;;;;;;;1.15;98.93;98437.38;4900770;29;20051;-84
2024/01/04 05:22:49;;;;;;;146.65;83.20;;;;;;;1.18;98.67;98439.59;4892532;29;20055;-81
2024/01/04 05:25:35;;;;;;;150.73;86.60;;;;;;;1.23;98.35;98436.44;4900641;29;20052;-83
2024/01/04 05:28:22;;;;;;;148.77;87.72;;;;;;;1.27;98.39;98429.81;4900209;29;20063;-83
2024/01/04 05:31:08;;;;;;;166.15;94.70;;;;;;;1.25;97.79;98429.19;4886658;29;20056;-87
2024/01/04 05:33:55;;;;;;;154.05;90.75;;;;;;;1.26;98.33;98409.88;4879275;29;20056;-84
2024/01/04 05:36:41;;;;;;;153.13;88.07;;;;;;;1.32;98.32;98416.97;4900246;29;20052;-87
2024/01/04 05:39:27;;;;;;;163.50;92.88;;;;;;;1.34;98.17;98414.97;4892279;29;20059;-87
2024/01/04 05:42:13;;;;;;;147.57;84.63;;;;;;;1.37;98.49;98398.88;4872845;29;20072;-87
2024/01/04 05:44:59;;;;;;;149.43;86.38;;;;;;;1.36;98.42;98403.31;4892033;29;20067;-87
2024/01/04 05:47:45;;;;;;;160.77;89.45;;;;;;;1.39;98.76;98409.97;4878990;29;20056;-87
2024/01/04 05:50:32;;;;;;;149.75;87.03;;;;;;;1.43;98.37;98407.78;4872942;29;20507;-86
2024/01/04 05:53:18;;;;;;;143.50;75.50;;;;;;;1.44;98.39;98397.09;4879555;29;20047;-84
2024/01/04 05:56:05;;;;;;;145.70;82.57;;;;;;;1.41;98.37;98407.16;4902765;29;20071;-84
2024/01/04 05:58:52;;;;;;;140.25;74.97;;;;;;;1.43;98.45;98402.56;4906939;29;20059;-84
2024/01/04 06:01:39;;;;;;;157.27;80.93;;;;;;;1.48;98.32;98394.94;4907147;29;20075;-83
2024/01/04 06:04:24;;;;;;;172.40;89.65;;;;;;;1.48;98.22;98385.28;4914707;29;20035;-82
2024/01/04 06:07:11;;;;;;;172.75;89.68;;;;;;;1.51;98.57;98374.41;4923874;29;20063;-86
2024/01/04 06:09:58;;;;;;;154.95;85.75;;;;;;;1.52;97.86;98369.97;4897540;29;20056;-87
2024/01/04 06:12:44;;;;;;;166.48;91.55;;;;;;;1.52;98.27;98355.06;4881703;29;20110;-87
2024/01/04 06:15:29;;;;;;;206.90;115.28;;;;;;;1.54;97.80;98373.22;4885255;29;20044;-87
2024/01/04 06:18:15;;;;;;;191.50;110.78;;;;;;;1.56;97.63;98379.06;4916279;29;20028;-84
2024/01/04 06:21:02;;;;;;;145.20;79.00;;;;;;;1.58;98.60;98384.94;4923490;29;20039;-86
2024/01/04 06:23:49;;;;;;;281.40;143.68;;;;;;;1.48;97.98;98385.28;4903441;29;20043;-86
2024/01/04 06:26:34;;;;;;;294.25;145.70;;;;;;;1.45;98.56;98379.63;4899409;29;20044;-86
2024/01/04 06:29:19;;;;;;;265.48;133.45;;;;;;;1.46;97.78;98381.22;4885060;29;20487;-83
2024/01/04 06:32:08;;;;;;;252.82;127.68;;;;;;;1.52;98.16;98390.94;4899008;29;20491;-84
2024/01/04 06:34:53;;;;;;;356.92;184.15;;;;;;;1.57;98.02;98386.75;4900790;29;20052;-84
2024/01/04 06:37:38;;;;;;;252.38;138.00;;;;;;;1.55;98.14;98386.13;4892343;29;20052;-85
2024/01/04 06:40:24;;;;;;;221.70;120.30;;;;;;;1.65;98.17;98390.19;4892924;29;20044;-85
2024/01/04 06:43:10;;;;;;;219.82;122.75;;;;;;;1.66;98.22;98392.66;4886712;29;20048;-85
2024/01/04 06:45:57;;;;;;;200.73;109.30;;;;;;;1.64;98.29;98394.63;4899857;29;20048;-85
2024/01/04 06:48:43;;;;;;;193.02;102.68;;;;;;;1.71;97.82;98403.34;4878952;29;20403;-86
2024/01/04 06:51:29;;;;;;;169.55;98.05;;;;;;;1.69;97.41;98391.44;4885310;29;20045;-86
2024/01/04 06:54:15;;;;;;;189.73;98.25;;;;;;;1.58;97.15;98387.53;4878488;29;20514;-85
2024/01/04 06:57:06;;;;;;;174.40;95.28;;;;;;;1.65;97.96;98374.50;4896478;29;20049;-83
2024/01/04 06:59:53;;;;;;;155.90;87.00;;;;;;;1.73;97.89;98377.75;4901544;29;20059;-86
2024/01/04 07:02:40;;;;;;;175.23;97.35;;;;;;;1.90;97.87;98387.91;4873831;29;20407;-86
2024/01/04 07:05:26;;;;;;;250.80;134.68;;;;;;;1.91;97.68;98373.81;4879122;29;20514;-83
2024/01/04 07:08:12;;;;;;;183.32;102.07;;;;;;;1.96;97.31;98372.22;4899266;29;20395;-88
2024/01/04 07:10:57;;;;;;;200.90;118.90;;;;;;;1.96;97.53;98366.97;4884981;29;20476;-88
2024/01/04 07:13:43;;;;;;;221.32;123.70;;;;;;;2.04;97.27;98360.78;4877075;29;20053;-85
2024/01/04 07:16:28;;;;;;;236.65;138.32;;;;;;;1.96;96.70;98347.84;4890427;29;20044;-87
2024/01/04 07:19:14;;;;;;;209.38;126.88;;;;;;;2.07;97.30;98363.81;4877921;29;20049;-86
2024/01/04 07:22:00;;;;;;;190.35;114.32;;;;;;;2.13;96.80;98350.91;4877710;29;20052;-84
2024/01/04 07:24:45;;;;;;;150.80;82.35;;;;;;;2.25;96.78;98359.81;4885608;29;20052;-83
2024/01/04 07:27:31;;;;;;;159.07;94.38;;;;;;;2.25;96.67;98365.06;4898788;29;20055;-83
2024/01/04 07:30:17;;;;;;;170.63;99.63;;;;;;;2.34;96.72;98352.59;4897936;29;20052;-84
2024/01/04 07:33:03;;;;;;;206.90;120.07;;;;;;;2.30;96.69;98349.56;4898460;29;20071;-84
2024/01/04 07:35:49;;;;;;;179.02;107.95;;;;;;;2.45;96.77;98359.91;4898779;29;20048;-83
2024/01/04 07:38:34;;;;;;;130.02;71.43;;;;;;;2.52;95.92;98376.44;4899511;29;20480;-86
2024/01/04 07:41:20;;;;;;;153.02;92.57;;;;;;;2.42;96.34;98350.59;4886701;29;20044;-83
2024/01/04 07:44:05;;;;;;;176.90;109.03;;;;;;;2.52;96.30;98358.09;4899739;29;20059;-85
2024/01/04 07:46:51;;;;;;;176.80;101.78;;;;;;;2.60;96.29;98351.84;4900353;29;20049;-86
2024/01/04 07:49:37;;;;;;;188.68;107.53;;;;;;;2.61;96.53;98370.00;4903154;29;20052;-89
2024/01/04 07:52:22;;;;;;;139.48;72.72;;;;;;;2.62;96.14;98362.94;4882045;29;20048;-89
2024/01/04 07:55:08;;;;;;;149.05;84.72;;;;;;;2.67;96.35;98356.09;4894747;29;20047;-88
2024/01/04 07:57:57;;;;;;;148.73;90.75;;;;;;;2.78;95.91;98350.25;4888966;29;20415;-77
2024/01/04 08:00:42;;;;;;;105.57;52.20;;;;;;;2.87;95.95;98336.94;4909273;29;20048;-79
2024/01/04 08:03:28;;;;;;;129.57;71.88;;;;;;;3.03;96.07;98330.47;4901577;29;20056;-77
2024/01/04 08:06:13;;;;;;;169.48;97.40;;;;;;;3.04;95.56;98332.06;4901340;29;20059;-78
2024/01/04 08:08:59;;;;;;;170.43;101.75;;;;;;;3.20;95.88;98322.00;4909874;29;20071;-78
2024/01/04 08:11:45;;;;;;;163.57;96.05;;;;;;;3.29;95.36;98319.97;4900883;29;20044;-78
2024/01/04 08:14:33;;;;;;;157.05;96.45;;;;;;;3.34;94.69;98312.25;4899512;29;20051;-78
2024/01/04 08:17:18;;;;;;;163.75;98.00;;;;;;;3.54;94.80;98299.09;4901047;29;20071;-78
2024/01/04 08:20:05;;;;;;;170.65;100.28;;;;;;;3.57;94.60;98303.91;4901212;29;20395;-77
2024/01/04 08:22:49;;;;;;;166.10;98.40;;;;;;;3.67;94.24;98308.75;4901091;29;20049;-77
2024/01/04 08:25:35;;;;;;;162.18;98.20;;;;;;;3.64;93.87;98311.78;4893307;29;20514;-78
2024/01/04 08:28:22;;;;;;;190.32;105.72;;;;;;;3.81;94.13;98312.13;4900551;29;20052;-81
2024/01/04 08:31:08;;;;;;;198.75;112.53;;;;;;;3.82;93.91;98308.47;4901046;29;20045;-78
2024/01/04 08:33:54;;;;;;;215.25;113.57;;;;;;;3.74;93.96;98311.34;4901109;29;20399;-81
2024/01/04 08:36:40;;;;;;;168.38;100.93;;;;;;;3.78;93.62;98331.75;4901283;29;20048;-81
2024/01/04 08:39:26;;;;;;;192.05;111.55;;;;;;;3.83;93.46;98320.63;4902048;29;20044;-80
2024/01/04 08:42:11;;;;;;;195.45;108.07;;;;;;;3.77;93.69;98337.22;4901944;29;20044;-77
2024/01/04 08:44:58;;;;;;;161.57;98.68;;;;;;;3.77;93.38;98324.06;4901713;29;20041;-76
2024/01/04 08:47:44;;;;;;;163.13;97.95;;;;;;;3.89;93.29;98325.03;4901779;29;20064;-81
2024/01/04 08:50:29;;;;;;;157.40;94.13;;;;;;;4.03;93.48;98328.41;4900877;29;20044;-82
2024/01/04 08:53:20;;;;;;;165.95;99.78;;;;;;;4.24;93.45;98322.06;4900685;29;20060;-83
2024/01/04 08:56:08;;;;;;;147.75;88.63;;;;;;;4.15;93.28;98330.19;4901095;29;20052;-83
2024/01/04 08:58:53;;;;;;;141.02;70.57;;;;;;;4.13;93.38;98337.47;4901739;29;20055;-78
2024/01/04 09:01:39;;;;;;;163.95;96.38;;;;;;;4.18;93.57;98345.53;4899657;29;20506;-79
2024/01/04 09:04:24;;;;;;;110.25;65.53;;;;;;;4.31;93.27;98349.91;4886889;29;20055;-81
2024/01/04 09:07:12;;;;;;;73.53;38.25;;;;;;;4.33;93.26;98363.69;4900421;29;20518;-82
2024/01/04 09:09:58;;;;;;;141.85;82.40;;;;;;;4.46;93.35;98360.16;4906654;29;20063;-81
2024/01/04 09:12:44;;;;;;;122.22;71.90;;;;;;;4.57;93.70;98363.94;4900420;29;20114;-79
2024/01/04 09:15:30;;;;;;;124.82;76.35;;;;;;;4.53;93.73;98346.97;4900447;29;20051;-82
2024/01/04 09:18:15;;;;;;;153.02;97.55;;;;;;;4.39;93.26;98347.06;4900222;29;20064;-77
2024/01/04 09:21:01;;;;;;;138.68;86.65;;;;;;;4.46;93.25;98364.63;4900793;29;20059;-82
2024/01/04 09:23:47;;;;;;;136.15;80.22;;;;;;;4.48;93.15;98371.28;4901419;29;20051;-81
2024/01/04 09:26:32;;;;;;;134.45;81.68;;;;;;;4.61;93.10;98384.38;4909349;29;20051;-78
2024/01/04 09:29:19;;;;;;;124.60;77.53;;;;;;;4.67;93.02;98352.94;4905950;29;20067;-79
2024/01/04 09:32:05;;;;;;;118.80;69.90;;;;;;;4.71;92.91;98356.78;4900437;29;20068;-81
2024/01/04 09:34:50;;;;;;;102.25;60.17;;;;;;;4.76;93.01;98341.13;4906428;29;20047;-82
2024/01/04 09:37:35;;;;;;;123.47;80.88;;;;;;;4.81;92.78;98338.69;4900567;29;20058;-78
2024/01/04 09:40:21;;;;;;;119.18;74.15;;;;;;;4.90;93.00;98345.31;4900886;29;20048;-78
2024/01/04 09:43:07;;;;;;;128.50;76.93;;;;;;;4.91;93.44;98344.28;4886226;29;20399;-78
2024/01/04 09:45:54;;;;;;;123.68;76.10;;;;;;;4.98;92.93;98363.47;4887259;29;20608;-79
2024/01/04 09:48:42;;;;;;;133.43;77.65;;;;;;;4.98;92.86;98357.38;4887364;29;20392;-78
2024/01/04 09:51:29;;;;;;;133.10;80.32;;;;;;;5.02;93.38;98372.56;4887920;29;20051;-77
2024/01/04 09:54:17;;;;;;;137.98;84.70;;;;;;;5.08;93.41;98403.31;4911312;29;20055;-77
2024/01/04 09:57:04;;;;;;;140.15;81.80;;;;;;;5.09;93.34;98388.31;4914297;29;20055;-81
2024/01/04 09:59:49;;;;;;;59.35;30.98;;;;;;;5.13;92.85;98400.00;4899582;29;20126;-79
2024/01/04 10:02:40;;;;;;;90.03;46.25;;;;;;;5.07;93.20;98401.66;4901150;29;20056;-80
2024/01/04 10:05:26;;;;;;;43.67;25.10;;;;;;;5.02;93.56;98405.97;4899993;29;20510;-80
2024/01/04 10:08:26;;;;;;;87.68;50.92;;;;;;;5.07;93.65;98428.00;4897102;29;20051;-77
2024/01/04 10:11:16;;;;;;;65.57;37.75;;;;;;;5.16;93.78;98433.81;4903011;29;20059;-77
2024/01/04 10:14:03;;;;;;;57.00;35.53;;;;;;;5.28;93.98;98440.03;4883585;29;20071;-80
2024/01/04 10:16:47;;;;;;;52.78;32.78;;;;;;;5.36;93.86;98457.41;4894351;29;20399;-79
2024/01/04 10:19:33;;;;;;;59.47;37.53;;;;;;;5.40;93.08;98479.66;4907126;29;20044;-78
2024/01/04 10:22:23;;;;;;;65.88;41.22;;;;;;;5.39;93.33;98485.97;4914877;29;20051;-80
2024/01/04 10:25:11;;;;;;;59.45;37.08;;;;;;;5.39;93.89;98464.88;4907958;29;20048;-79
2024/01/04 10:27:58;;;;;;;63.03;36.38;;;;;;;5.53;94.12;98457.66;4899548;29;20387;-80
2024/01/04 10:30:44;;;;;;;67.70;37.70;;;;;;;5.54;93.19;98454.81;4905810;29;20056;-81
2024/01/04 10:33:29;;;;;;;106.35;46.53;;;;;;;5.55;93.13;98469.63;4895862;29;20056;-78
2024/01/04 10:36:17;;;;;;;82.53;42.05;;;;;;;5.60;93.68;98452.34;4911903;29;20052;-78
2024/01/04 10:39:07;;;;;;;78.70;39.20;;;;;;;5.71;92.86;98454.28;4902264;29;20060;-82
2024/01/04 10:41:56;;;;;;;71.50;38.92;;;;;;;5.88;92.97;98452.69;4910645;29;20395;-80
2024/01/04 10:44:45;;;;;;;70.65;38.70;;;;;;;6.00;92.69;98448.31;4906401;29;20506;-81
2024/01/04 10:47:31;;;;;;;66.78;42.25;;;;;;;5.95;92.91;98469.25;4907656;29;20106;-77
2024/01/04 10:50:16;;;;;;;88.55;52.97;;;;;;;5.91;93.12;98498.91;4912682;29;20494;-81
2024/01/04 10:53:03;;;;;;;133.30;63.40;;;;;;;5.92;93.79;98524.25;4899305;29;20055;-82
2024/01/04 10:55:50;;;;;;;114.65;57.60;;;;;;;5.92;93.75;98559.38;4912485;29;20067;-81
2024/01/04 10:58:42;;;;;;;56.72;31.17;;;;;;;6.13;93.42;98547.63;4885412;29;20067;-81
2024/01/04 11:01:51;;;;;;;60.00;29.50;;;;;;;6.55;91.59;98536.44;4898893;29;20055;-82
2024/01/04 11:05:01;;;;;;;47.85;25.90;;;;;;;6.51;91.77;98530.00;4908636;29;20498;-80
2024/01/04 11:08:13;;;;;;;107.82;54.90;;;;;;;6.55;92.71;98517.97;4896302;29;20068;-78
2024/01/04 11:11:24;;;;;;;68.68;42.35;;;;;;;6.62;92.93;98510.78;4907033;29;20055;-80
2024/01/04 11:14:33;;;;;;;66.80;42.60;;;;;;;6.57;93.60;98515.91;4899568;29;20072;-80
2024/01/04 11:17:57;;;;;;;55.88;35.40;;;;;;;6.62;93.51;98518.72;4902471;29;20051;-78
2024/01/04 11:21:37;;;;;;;64.28;37.60;;;;;;;6.77;94.39;98498.03;4895325;29;20052;-78
2024/01/04 11:25:15;;;;;;;58.42;36.55;;;;;;;6.99;94.00;98500.16;4904053;29;20056;-79
2024/01/04 11:28:26;;;;;;;75.10;45.33;;;;;;;7.26;93.31;98477.63;4910969;29;20063;-77
2024/01/04 11:31:45;;;;;;;62.47;39.95;;;;;;;7.63;93.40;98477.47;4898777;29;20056;-79
2024/01/04 11:34:55;;;;;;;51.88;33.00;;;;;;;7.87;92.68;98468.50;4902886;29;20060;-79
2024/01/04 11:38:07;;;;;;;47.83;28.85;;;;;;;8.12;92.49;98462.16;4891514;29;20064;-79
2024/01/04 11:41:17;;;;;;;76.18;42.05;;;;;;;8.25;92.61;98464.56;4902005;29;20075;-82
2024/01/04 11:44:38;;;;;;;82.15;45.40;;;;;;;8.33;91.42;98450.16;4890955;29;20052;-78
2024/01/04 11:47:51;;;;;;;48.60;30.35;;;;;;;8.40;91.55;98444.75;4903455;29;20118;-83
2024/01/04 11:51:01;;;;;;;50.72;31.05;;;;;;;8.46;91.75;98436.69;4904150;29;20059;-80
2024/01/04 11:54:13;;;;;;;84.57;50.58;;;;;;;8.39;91.41;98456.38;4917694;29;20055;-79
2024/01/04 11:57:23;;;;;;;99.57;58.63;;;;;;;8.18;91.08;98463.88;4904376;29;20055;-80
2024/01/04 12:00:35;;;;;;;106.07;59.25;;;;;;;8.04;91.24;98460.66;4911243;29;20075;-80
2024/01/04 12:03:46;;;;;;;105.53;57.88;;;;;;;7.83;90.63;98461.25;4907096;29;20053;-79
2024/01/04 12:06:56;;;;;;;103.18;55.50;;;;;;;7.64;90.54;98453.41;4910561;29;20055;-78
2024/01/04 12:10:06;;;;;;;80.60;45.65;;;;;;;7.55;90.83;98446.06;4909391;29;20055;-79
2024/01/04 12:13:15;;;;;;;101.35;54.83;;;;;;;7.51;91.05;98450.19;4908650;29;20052;-80
2024/01/04 12:16:26;;;;;;;72.10;43.28;;;;;;;7.52;91.82;98449.97;4905709;29;20056;-77
2024/01/04 12:19:35;;;;;;;69.45;44.13;;;;;;;7.55;92.24;98446.06;4905267;29;20063;-79
2024/01/04 12:22:45;;;;;;;54.47;33.60;;;;;;;7.60;92.19;98446.19;4893686;29;20423;-78
2024/01/04 12:25:54;;;;;;;42.53;27.23;;;;;;;7.63;91.67;98451.81;4893916;29;20047;-80
2024/01/04 12:29:05;;;;;;;55.55;33.35;;;;;;;7.71;92.24;98463.06;4905158;29;20064;-77
2024/01/04 12:32:22;;;;;;;;;;;;;;;7.81;92.23;98456.19;4906028;29;20052;-81
2024/01/04 12:35:31;;;;;;;67.85;40.80;;;;;;;7.91;92.15;98455.63;4905928;29;19916;-80
2024/01/04 12:38:40;;;;;;;98.15;58.08;;;;;;;7.97;92.14;98452.03;4907035;29;20056;-80
2024/01/04 12:41:50;;;;;;;113.20;71.00;;;;;;;8.03;92.84;98453.78;4907477;29;20118;-80
2024/01/04 12:45:00;;;;;;;99.70;57.30;;;;;;;8.12;92.42;98459.53;4910649;29;20055;-77
2024/01/04 12:48:09;;;;;;;82.55;48.28;;;;;;;8.08;91.90;98455.72;4909768;29;20055;-79
2024/01/04 12:51:29;;;;;;;99.18;59.08;;;;;;;8.23;92.12;98463.19;4907040;29;20368;-79
2024/01/04 12:54:39;;;;;;;167.95;87.88;;;;;;;8.28;92.28;98461.44;4894529;29;20067;-77
2024/01/04 12:57:49;;;;;;;145.20;78.47;;;;;;;8.39;92.12;98465.13;4901508;29;20055;-77
2024/01/04 13:01:00;;;;;;;132.38;77.88;;;;;;;8.37;91.50;98461.06;4900940;29;20060;-79
2024/01/04 13:04:11;;;;;;;133.25;75.53;;;;;;;8.41;91.61;98473.66;4901072;29;20387;-79
2024/01/04 13:07:20;;;;;;;126.07;76.65;;;;;;;8.43;91.90;98462.81;4904582;29;20059;-79
2024/01/04 13:10:31;;;;;;;120.15;75.15;;;;;;;8.56;91.09;98473.97;4915256;29;20039;-79